Stornoway — WDC7908 — position and weather

sailwx.info

Track history (hours):
 
Tides and Currents Weather Stations Pressure Air Temp Water Temp Dewpoint Dewpoint Depression Visibility Wind Speed Wind Dir Waves Ship Positions

Stornoway

More information available from US FCC via Universal Licensing System and Coast Guard Vessel Documentation Center.

Last reported at 2014-Sep-17 22:29 UTC. Time now 2014-Sep-18 21:45 UTC.
Position N 47°42' W 122°32'.

Length 13 m.

Type: Pleasure craft. MMSI: 367078810.

Date/timePositionNaut miles runAvg speedWind from/ knotsBaromVisibWave heightAir tempDewpointWater temp
2014-Sep-17 22:29N 47°42' W 122°32'0 0.0
2014-Sep-17 19:17N 47°42' W 122°32'0 0.0
2014-Sep-17 18:29N 47°42' W 122°32'0 0.0
2014-Sep-17 06:05N 47°42' W 122°32'0 0.0
2014-Sep-16 12:17N 47°42' W 122°32'0 0.0
2014-Sep-16 09:26N 47°42' W 122°32'0 0.0
2014-Sep-16 08:05N 47°42' W 122°32'0 0.0
2014-Sep-16 04:23N 47°42' W 122°32'0 0.0
2014-Sep-15 18:30N 47°42' W 122°32'0 0.0
2014-Sep-15 17:30N 47°42' W 122°32'0 0.0
2014-Sep-15 16:06N 47°42' W 122°32'0 0.0
2014-Sep-15 15:12N 47°42' W 122°32'0 0.0
2014-Sep-15 14:30N 47°42' W 122°32'0 0.0
2014-Sep-15 12:18N 47°42' W 122°32'0 0.0
2014-Sep-15 11:24N 47°42' W 122°32'0 0.0
2014-Sep-15 10:18N 47°42' W 122°32'0 0.0
2014-Sep-15 09:30N 47°42' W 122°32'0 0.0
2014-Sep-15 06:24N 47°42' W 122°32'0 0.0
2014-Sep-15 04:30N 47°42' W 122°32'0 0.0
2014-Sep-15 03:24N 47°42' W 122°32'0 0.0
2014-Sep-15 02:12N 47°42' W 122°32'0 0.0
2014-Sep-15 00:24N 47°42' W 122°32'0 0.0
2014-Sep-14 18:24N 47°42' W 122°32'1 3.6
2014-Sep-14 18:08N 47°43' W 122°32'5 8.5
2014-Sep-14 17:33N 47°47' W 122°27'0 0.0
2014-Sep-14 17:33N 47°47' W 122°27'9 8.9
2014-Sep-14 16:33N 47°55' W 122°22'10 8.3
2014-Sep-14 15:18N 48°05' W 122°26'26 0.7
2014-Sep-12 23:14N 48°29' W 122°41'5 7.0
2014-Sep-12 22:33N 48°31' W 122°47'9 8.3
2014-Sep-12 21:31N 48°36' W 122°57'2 1.2
2014-Sep-12 20:11N 48°38' W 122°58'0 0.0
2014-Sep-12 19:11N 48°38' W 122°58'0 0.0
2014-Sep-12 18:32N 48°38' W 122°58'0 0.0
2014-Sep-12 17:29N 48°38' W 122°58'0 0.0
2014-Sep-12 16:32N 48°38' W 122°58'0 0.0
2014-Sep-12 15:32N 48°38' W 122°58'0 0.0
2014-Sep-12 14:32N 48°38' W 122°58'0 0.0
2014-Sep-12 13:32N 48°38' W 122°58'0 0.0
2014-Sep-12 12:29N 48°38' W 122°58'0 0.0
2014-Sep-12 11:29N 48°38' W 122°58'0 0.0
2014-Sep-12 10:32N 48°38' W 122°58'0 0.0
2014-Sep-12 09:26N 48°38' W 122°58'0 0.0
2014-Sep-12 08:29N 48°38' W 122°58'0 0.0
2014-Sep-12 07:29N 48°38' W 122°58'0 0.0
2014-Sep-12 06:29N 48°38' W 122°58'0 0.0
2014-Sep-12 05:32N 48°38' W 122°58'0 0.0
2014-Sep-12 04:29N 48°38' W 122°58'0 0.0
2014-Sep-12 03:29N 48°38' W 122°58'0 0.0
2014-Sep-12 02:29N 48°38' W 122°58'0 0.0
2014-Sep-12 01:29N 48°38' W 122°58'0 0.0
2014-Sep-12 00:29N 48°38' W 122°58'0 0.0
2014-Sep-11 23:26N 48°38' W 122°58'0 0.0
2014-Sep-11 22:29N 48°38' W 122°58'0 0.0
2014-Sep-11 21:32N 48°38' W 122°58'0 0.0
2014-Sep-11 20:32N 48°38' W 122°58'0 0.0
2014-Sep-11 19:25N 48°38' W 122°58'0 0.2
2014-Sep-11 18:31N 48°38' W 122°58'9 6.6
2014-Sep-11 17:06N 48°41' W 123°11'1 0.4
2014-Sep-11 14:32N 48°41' W 123°12'0 0.0
2014-Sep-11 13:11N 48°41' W 123°12'0 0.0
2014-Sep-11 12:29N 48°41' W 123°12'0 0.0
2014-Sep-11 11:32N 48°41' W 123°12'0 0.0
2014-Sep-11 08:23N 48°41' W 123°12'0 0.0
2014-Sep-11 07:11N 48°41' W 123°12'0 0.0
2014-Sep-11 06:23N 48°41' W 123°12'8 0.2
2014-Sep-09 20:21N 48°42' W 123°24'6 0.2
2014-Sep-08 19:17N 48°37' W 123°30'5 6.3
2014-Sep-08 18:31N 48°41' W 123°32'5 4.7
2014-Sep-08 17:26N 48°46' W 123°36'0 0.0
2014-Sep-08 15:26N 48°46' W 123°36'0 0.0
2014-Sep-08 14:08N 48°46' W 123°36'0 0.0
2014-Sep-08 13:26N 48°46' W 123°36'0 0.0
2014-Sep-08 11:26N 48°46' W 123°36'0 0.0
2014-Sep-08 10:32N 48°46' W 123°36'0 0.0
2014-Sep-08 09:14N 48°46' W 123°36'0 0.0
2014-Sep-08 08:32N 48°46' W 123°36'0 0.0
2014-Sep-08 07:20N 48°46' W 123°36'0 0.0
2014-Sep-08 06:20N 48°46' W 123°36'0 0.0
2014-Sep-08 05:32N 48°46' W 123°36'0 0.0
2014-Sep-08 02:26N 48°46' W 123°36'0 0.0
2014-Sep-08 01:32N 48°46' W 123°36'0 0.0
2014-Sep-08 00:26N 48°46' W 123°36'0 0.0
2014-Sep-07 23:32N 48°46' W 123°36'  
Track history (hours):
 
Tides and Currents Weather Stations Pressure Air Temp Water Temp Dewpoint Dewpoint Depression Visibility Wind Speed Wind Dir Waves Ship Positions

Stornoway

More information available from US FCC via Universal Licensing System and Coast Guard Vessel Documentation Center.

Last reported at 2014-Sep-17 22:29 UTC. Time now 2014-Sep-18 21:45 UTC.
Position N 47°42' W 122°32'.

Length 13 m.

Type: Pleasure craft. MMSI: 367078810.

Date/timePositionNaut miles runAvg speedWind from/ knotsBaromVisibWave heightAir tempDewpointWater temp
2014-Sep-17 22:29N 47°42' W 122°32'0 0.0
2014-Sep-17 19:17N 47°42' W 122°32'0 0.0
2014-Sep-17 18:29N 47°42' W 122°32'0 0.0
2014-Sep-17 06:05N 47°42' W 122°32'0 0.0
2014-Sep-16 12:17N 47°42' W 122°32'0 0.0
2014-Sep-16 09:26N 47°42' W 122°32'0 0.0
2014-Sep-16 08:05N 47°42' W 122°32'0 0.0
2014-Sep-16 04:23N 47°42' W 122°32'0 0.0
2014-Sep-15 18:30N 47°42' W 122°32'0 0.0
2014-Sep-15 17:30N 47°42' W 122°32'0 0.0
2014-Sep-15 16:06N 47°42' W 122°32'0 0.0
2014-Sep-15 15:12N 47°42' W 122°32'0 0.0
2014-Sep-15 14:30N 47°42' W 122°32'0 0.0
2014-Sep-15 12:18N 47°42' W 122°32'0 0.0
2014-Sep-15 11:24N 47°42' W 122°32'0 0.0
2014-Sep-15 10:18N 47°42' W 122°32'0 0.0
2014-Sep-15 09:30N 47°42' W 122°32'0 0.0
2014-Sep-15 06:24N 47°42' W 122°32'0 0.0
2014-Sep-15 04:30N 47°42' W 122°32'0 0.0
2014-Sep-15 03:24N 47°42' W 122°32'0 0.0
2014-Sep-15 02:12N 47°42' W 122°32'0 0.0
2014-Sep-15 00:24N 47°42' W 122°32'0 0.0
2014-Sep-14 18:24N 47°42' W 122°32'1 3.6
2014-Sep-14 18:08N 47°43' W 122°32'5 8.5
2014-Sep-14 17:33N 47°47' W 122°27'0 0.0
2014-Sep-14 17:33N 47°47' W 122°27'9 8.9
2014-Sep-14 16:33N 47°55' W 122°22'10 8.3
2014-Sep-14 15:18N 48°05' W 122°26'26 0.7
2014-Sep-12 23:14N 48°29' W 122°41'5 7.0
2014-Sep-12 22:33N 48°31' W 122°47'9 8.3
2014-Sep-12 21:31N 48°36' W 122°57'2 1.2
2014-Sep-12 20:11N 48°38' W 122°58'0 0.0
2014-Sep-12 19:11N 48°38' W 122°58'0 0.0
2014-Sep-12 18:32N 48°38' W 122°58'0 0.0
2014-Sep-12 17:29N 48°38' W 122°58'0 0.0
2014-Sep-12 16:32N 48°38' W 122°58'0 0.0
2014-Sep-12 15:32N 48°38' W 122°58'0 0.0
2014-Sep-12 14:32N 48°38' W 122°58'0 0.0
2014-Sep-12 13:32N 48°38' W 122°58'0 0.0
2014-Sep-12 12:29N 48°38' W 122°58'0 0.0
2014-Sep-12 11:29N 48°38' W 122°58'0 0.0
2014-Sep-12 10:32N 48°38' W 122°58'0 0.0
2014-Sep-12 09:26N 48°38' W 122°58'0 0.0
2014-Sep-12 08:29N 48°38' W 122°58'0 0.0
2014-Sep-12 07:29N 48°38' W 122°58'0 0.0
2014-Sep-12 06:29N 48°38' W 122°58'0 0.0
2014-Sep-12 05:32N 48°38' W 122°58'0 0.0
2014-Sep-12 04:29N 48°38' W 122°58'0 0.0
2014-Sep-12 03:29N 48°38' W 122°58'0 0.0
2014-Sep-12 02:29N 48°38' W 122°58'0 0.0
2014-Sep-12 01:29N 48°38' W 122°58'0 0.0
2014-Sep-12 00:29N 48°38' W 122°58'0 0.0
2014-Sep-11 23:26N 48°38' W 122°58'0 0.0
2014-Sep-11 22:29N 48°38' W 122°58'0 0.0
2014-Sep-11 21:32N 48°38' W 122°58'0 0.0
2014-Sep-11 20:32N 48°38' W 122°58'0 0.0
2014-Sep-11 19:25N 48°38' W 122°58'0 0.2
2014-Sep-11 18:31N 48°38' W 122°58'9 6.6
2014-Sep-11 17:06N 48°41' W 123°11'1 0.4
2014-Sep-11 14:32N 48°41' W 123°12'0 0.0
2014-Sep-11 13:11N 48°41' W 123°12'0 0.0
2014-Sep-11 12:29N 48°41' W 123°12'0 0.0
2014-Sep-11 11:32N 48°41' W 123°12'0 0.0
2014-Sep-11 08:23N 48°41' W 123°12'0 0.0
2014-Sep-11 07:11N 48°41' W 123°12'0 0.0
2014-Sep-11 06:23N 48°41' W 123°12'8 0.2
2014-Sep-09 20:21N 48°42' W 123°24'6 0.2
2014-Sep-08 19:17N 48°37' W 123°30'5 6.3
2014-Sep-08 18:31N 48°41' W 123°32'5 4.7
2014-Sep-08 17:26N 48°46' W 123°36'0 0.0
2014-Sep-08 15:26N 48°46' W 123°36'0 0.0
2014-Sep-08 14:08N 48°46' W 123°36'0 0.0
2014-Sep-08 13:26N 48°46' W 123°36'0 0.0
2014-Sep-08 11:26N 48°46' W 123°36'0 0.0
2014-Sep-08 10:32N 48°46' W 123°36'0 0.0
2014-Sep-08 09:14N 48°46' W 123°36'0 0.0
2014-Sep-08 08:32N 48°46' W 123°36'0 0.0
2014-Sep-08 07:20N 48°46' W 123°36'0 0.0
2014-Sep-08 06:20N 48°46' W 123°36'0 0.0
2014-Sep-08 05:32N 48°46' W 123°36'0 0.0
2014-Sep-08 02:26N 48°46' W 123°36'0 0.0
2014-Sep-08 01:32N 48°46' W 123°36'0 0.0
2014-Sep-08 00:26N 48°46' W 123°36'0 0.0
2014-Sep-07 23:32N 48°46' W 123°36'  

Dump ship's entire track history